sensor_id;sensor_type;location;lat;lon;timestamp;P1;durP1;ratioP1;P2;durP2;ratioP2
5981;SDS011;3018;48.730;9.336;2023-07-02T00:00:26;3.63;;;2.30;;
5981;SDS011;3018;48.730;9.336;2023-07-02T00:02:53;2.60;;;2.38;;
5981;SDS011;3018;48.730;9.336;2023-07-02T00:05:19;2.65;;;2.42;;
5981;SDS011;3018;48.730;9.336;2023-07-02T00:07:45;4.05;;;2.50;;
5981;SDS011;3018;48.730;9.336;2023-07-02T00:10:11;3.45;;;2.83;;
5981;SDS011;3018;48.730;9.336;2023-07-02T00:12:39;2.50;;;2.40;;
5981;SDS011;3018;48.730;9.336;2023-07-02T00:15:06;2.83;;;2.45;;
5981;SDS011;3018;48.730;9.336;2023-07-02T00:17:32;2.95;;;2.55;;
5981;SDS011;3018;48.730;9.336;2023-07-02T00:19:58;3.28;;;2.97;;
5981;SDS011;3018;48.730;9.336;2023-07-02T00:22:34;2.90;;;2.55;;
5981;SDS011;3018;48.730;9.336;2023-07-02T00:25:01;2.45;;;2.28;;
5981;SDS011;3018;48.730;9.336;2023-07-02T00:27:27;2.83;;;2.72;;
5981;SDS011;3018;48.730;9.336;2023-07-02T00:29:55;2.47;;;2.38;;
5981;SDS011;3018;48.730;9.336;2023-07-02T00:32:21;3.72;;;2.50;;
5981;SDS011;3018;48.730;9.336;2023-07-02T00:34:47;2.38;;;2.17;;
5981;SDS011;3018;48.730;9.336;2023-07-02T00:37:14;3.83;;;2.65;;
5981;SDS011;3018;48.730;9.336;2023-07-02T00:39:40;3.28;;;2.80;;
5981;SDS011;3018;48.730;9.336;2023-07-02T00:42:06;2.67;;;2.58;;
5981;SDS011;3018;48.730;9.336;2023-07-02T00:44:33;3.30;;;2.80;;
5981;SDS011;3018;48.730;9.336;2023-07-02T00:47:06;3.00;;;2.80;;
5981;SDS011;3018;48.730;9.336;2023-07-02T00:49:33;4.55;;;2.78;;
5981;SDS011;3018;48.730;9.336;2023-07-02T00:51:59;3.30;;;2.80;;
5981;SDS011;3018;48.730;9.336;2023-07-02T00:54:27;2.85;;;2.65;;
5981;SDS011;3018;48.730;9.336;2023-07-02T00:56:53;3.60;;;2.90;;
5981;SDS011;3018;48.730;9.336;2023-07-02T00:59:20;3.25;;;2.60;;
5981;SDS011;3018;48.730;9.336;2023-07-02T01:01:46;3.15;;;2.90;;
5981;SDS011;3018;48.730;9.336;2023-07-02T01:04:16;3.08;;;2.97;;
5981;SDS011;3018;48.730;9.336;2023-07-02T01:06:43;2.90;;;2.80;;
5981;SDS011;3018;48.730;9.336;2023-07-02T01:09:10;3.38;;;3.17;;
5981;SDS011;3018;48.730;9.336;2023-07-02T01:11:38;4.45;;;3.13;;
5981;SDS011;3018;48.730;9.336;2023-07-02T01:14:07;4.13;;;3.92;;
5981;SDS011;3018;48.730;9.336;2023-07-02T01:16:34;3.15;;;2.88;;
5981;SDS011;3018;48.730;9.336;2023-07-02T01:19:02;4.90;;;2.90;;
5981;SDS011;3018;48.730;9.336;2023-07-02T01:21:31;3.35;;;3.00;;
5981;SDS011;3018;48.730;9.336;2023-07-02T01:23:58;4.45;;;3.47;;
5981;SDS011;3018;48.730;9.336;2023-07-02T01:26:27;3.22;;;3.08;;
5981;SDS011;3018;48.730;9.336;2023-07-02T01:28:53;3.40;;;3.20;;
5981;SDS011;3018;48.730;9.336;2023-07-02T01:31:19;3.38;;;3.28;;
5981;SDS011;3018;48.730;9.336;2023-07-02T01:33:50;4.10;;;3.13;;
5981;SDS011;3018;48.730;9.336;2023-07-02T01:36:21;2.88;;;2.72;;
5981;SDS011;3018;48.730;9.336;2023-07-02T01:38:49;3.13;;;3.03;;
5981;SDS011;3018;48.730;9.336;2023-07-02T01:41:15;3.30;;;3.10;;
5981;SDS011;3018;48.730;9.336;2023-07-02T01:43:42;6.28;;;3.30;;
5981;SDS011;3018;48.730;9.336;2023-07-02T01:46:08;2.67;;;2.58;;
5981;SDS011;3018;48.730;9.336;2023-07-02T01:48:34;3.25;;;2.47;;
5981;SDS011;3018;48.730;9.336;2023-07-02T01:51:00;2.72;;;2.55;;
5981;SDS011;3018;48.730;9.336;2023-07-02T01:53:27;3.03;;;2.78;;
5981;SDS011;3018;48.730;9.336;2023-07-02T01:55:54;2.83;;;2.72;;
5981;SDS011;3018;48.730;9.336;2023-07-02T01:58:21;2.83;;;2.72;;
5981;SDS011;3018;48.730;9.336;2023-07-02T02:00:47;3.10;;;2.90;;
5981;SDS011;3018;48.730;9.336;2023-07-02T02:03:13;6.45;;;3.45;;
5981;SDS011;3018;48.730;9.336;2023-07-02T02:05:40;2.70;;;2.50;;
5981;SDS011;3018;48.730;9.336;2023-07-02T02:08:06;2.78;;;2.60;;
5981;SDS011;3018;48.730;9.336;2023-07-02T02:10:32;3.03;;;2.80;;
5981;SDS011;3018;48.730;9.336;2023-07-02T02:13:00;2.88;;;2.67;;
5981;SDS011;3018;48.730;9.336;2023-07-02T02:15:26;3.13;;;2.92;;
5981;SDS011;3018;48.730;9.336;2023-07-02T02:17:52;3.20;;;2.97;;
5981;SDS011;3018;48.730;9.336;2023-07-02T02:20:19;3.20;;;2.90;;
5981;SDS011;3018;48.730;9.336;2023-07-02T02:22:45;2.80;;;2.70;;
5981;SDS011;3018;48.730;9.336;2023-07-02T02:25:11;4.13;;;2.80;;
5981;SDS011;3018;48.730;9.336;2023-07-02T02:27:38;2.97;;;2.83;;
5981;SDS011;3018;48.730;9.336;2023-07-02T02:30:06;3.08;;;2.88;;
5981;SDS011;3018;48.730;9.336;2023-07-02T02:32:32;2.50;;;2.40;;
5981;SDS011;3018;48.730;9.336;2023-07-02T02:34:59;4.03;;;2.60;;
5981;SDS011;3018;48.730;9.336;2023-07-02T02:37:25;3.58;;;2.90;;
5981;SDS011;3018;48.730;9.336;2023-07-02T02:39:51;2.97;;;2.72;;
5981;SDS011;3018;48.730;9.336;2023-07-02T02:42:17;2.45;;;2.30;;
5981;SDS011;3018;48.730;9.336;2023-07-02T02:44:44;5.40;;;2.70;;
5981;SDS011;3018;48.730;9.336;2023-07-02T02:47:11;2.33;;;2.22;;
5981;SDS011;3018;48.730;9.336;2023-07-02T02:49:38;3.70;;;2.60;;
5981;SDS011;3018;48.730;9.336;2023-07-02T02:52:05;3.08;;;2.75;;
5981;SDS011;3018;48.730;9.336;2023-07-02T02:54:31;3.70;;;2.75;;
5981;SDS011;3018;48.730;9.336;2023-07-02T02:56:57;3.08;;;2.88;;
5981;SDS011;3018;48.730;9.336;2023-07-02T02:59:23;2.53;;;2.53;;
5981;SDS011;3018;48.730;9.336;2023-07-02T03:01:50;2.53;;;2.35;;
5981;SDS011;3018;48.730;9.336;2023-07-02T03:04:17;2.42;;;2.33;;
5981;SDS011;3018;48.730;9.336;2023-07-02T03:06:44;5.25;;;2.78;;
5981;SDS011;3018;48.730;9.336;2023-07-02T03:09:11;2.70;;;2.50;;
5981;SDS011;3018;48.730;9.336;2023-07-02T03:11:37;2.60;;;2.38;;
5981;SDS011;3018;48.730;9.336;2023-07-02T03:14:03;4.35;;;2.30;;
5981;SDS011;3018;48.730;9.336;2023-07-02T03:16:29;3.00;;;2.83;;
5981;SDS011;3018;48.730;9.336;2023-07-02T03:18:56;3.85;;;2.67;;
5981;SDS011;3018;48.730;9.336;2023-07-02T03:21:25;2.60;;;2.50;;
5981;SDS011;3018;48.730;9.336;2023-07-02T03:23:51;2.67;;;2.47;;
5981;SDS011;3018;48.730;9.336;2023-07-02T03:26:17;2.72;;;2.63;;
5981;SDS011;3018;48.730;9.336;2023-07-02T03:28:44;2.13;;;2.05;;
5981;SDS011;3018;48.730;9.336;2023-07-02T03:31:11;2.60;;;2.40;;
5981;SDS011;3018;48.730;9.336;2023-07-02T03:33:37;3.00;;;2.72;;
5981;SDS011;3018;48.730;9.336;2023-07-02T03:36:03;4.53;;;2.55;;
5981;SDS011;3018;48.730;9.336;2023-07-02T03:38:31;3.00;;;2.78;;
5981;SDS011;3018;48.730;9.336;2023-07-02T03:40:57;4.13;;;3.05;;
5981;SDS011;3018;48.730;9.336;2023-07-02T03:43:23;2.60;;;2.20;;
5981;SDS011;3018;48.730;9.336;2023-07-02T03:45:51;3.40;;;2.70;;
5981;SDS011;3018;48.730;9.336;2023-07-02T03:48:17;3.78;;;2.60;;
5981;SDS011;3018;48.730;9.336;2023-07-02T03:50:43;4.90;;;3.08;;
5981;SDS011;3018;48.730;9.336;2023-07-02T03:53:10;4.40;;;2.72;;
5981;SDS011;3018;48.730;9.336;2023-07-02T03:55:37;4.20;;;2.95;;
5981;SDS011;3018;48.730;9.336;2023-07-02T03:58:04;4.60;;;2.75;;
5981;SDS011;3018;48.730;9.336;2023-07-02T04:00:30;7.15;;;2.95;;
5981;SDS011;3018;48.730;9.336;2023-07-02T04:02:56;5.15;;;3.15;;
5981;SDS011;3018;48.730;9.336;2023-07-02T04:05:22;4.88;;;2.92;;
5981;SDS011;3018;48.730;9.336;2023-07-02T04:07:49;4.97;;;3.22;;
5981;SDS011;3018;48.730;9.336;2023-07-02T04:10:15;4.68;;;3.17;;
5981;SDS011;3018;48.730;9.336;2023-07-02T04:12:43;4.50;;;2.85;;
5981;SDS011;3018;48.730;9.336;2023-07-02T04:15:09;4.47;;;2.95;;
5981;SDS011;3018;48.730;9.336;2023-07-02T04:17:36;4.13;;;3.10;;
5981;SDS011;3018;48.730;9.336;2023-07-02T04:20:02;3.13;;;2.95;;
5981;SDS011;3018;48.730;9.336;2023-07-02T04:22:28;3.38;;;3.08;;
5981;SDS011;3018;48.730;9.336;2023-07-02T04:24:55;7.35;;;3.22;;
5981;SDS011;3018;48.730;9.336;2023-07-02T04:27:21;3.40;;;3.10;;
5981;SDS011;3018;48.730;9.336;2023-07-02T04:29:49;3.92;;;3.28;;
5981;SDS011;3018;48.730;9.336;2023-07-02T04:32:15;3.40;;;3.10;;
5981;SDS011;3018;48.730;9.336;2023-07-02T04:34:42;4.47;;;3.55;;
5981;SDS011;3018;48.730;9.336;2023-07-02T04:37:08;3.60;;;3.22;;
5981;SDS011;3018;48.730;9.336;2023-07-02T04:39:35;3.53;;;3.30;;
5981;SDS011;3018;48.730;9.336;2023-07-02T04:42:01;4.03;;;3.55;;
5981;SDS011;3018;48.730;9.336;2023-07-02T04:44:28;5.32;;;3.85;;
5981;SDS011;3018;48.730;9.336;2023-07-02T04:46:57;5.30;;;3.25;;
5981;SDS011;3018;48.730;9.336;2023-07-02T04:49:23;6.90;;;3.83;;
5981;SDS011;3018;48.730;9.336;2023-07-02T04:51:49;7.25;;;3.65;;
5981;SDS011;3018;48.730;9.336;2023-07-02T04:54:16;7.22;;;3.60;;
5981;SDS011;3018;48.730;9.336;2023-07-02T04:56:42;4.10;;;3.50;;
5981;SDS011;3018;48.730;9.336;2023-07-02T04:59:08;6.10;;;3.78;;
5981;SDS011;3018;48.730;9.336;2023-07-02T05:01:34;4.82;;;4.00;;
5981;SDS011;3018;48.730;9.336;2023-07-02T05:04:03;7.00;;;4.00;;
5981;SDS011;3018;48.730;9.336;2023-07-02T05:06:30;3.88;;;3.47;;
5981;SDS011;3018;48.730;9.336;2023-07-02T05:08:56;3.75;;;3.30;;
5981;SDS011;3018;48.730;9.336;2023-07-02T05:11:22;4.30;;;3.67;;
5981;SDS011;3018;48.730;9.336;2023-07-02T05:13:48;5.10;;;4.07;;
5981;SDS011;3018;48.730;9.336;2023-07-02T05:16:15;7.97;;;3.88;;
5981;SDS011;3018;48.730;9.336;2023-07-02T05:18:41;5.20;;;3.97;;
5981;SDS011;3018;48.730;9.336;2023-07-02T05:21:08;4.20;;;3.78;;
5981;SDS011;3018;48.730;9.336;2023-07-02T05:23:35;6.22;;;3.80;;
5981;SDS011;3018;48.730;9.336;2023-07-02T05:26:01;6.68;;;4.45;;
5981;SDS011;3018;48.730;9.336;2023-07-02T05:28:27;5.53;;;4.05;;
5981;SDS011;3018;48.730;9.336;2023-07-02T05:30:54;4.72;;;3.58;;
5981;SDS011;3018;48.730;9.336;2023-07-02T05:33:20;5.47;;;3.40;;
5981;SDS011;3018;48.730;9.336;2023-07-02T05:35:47;3.33;;;2.97;;
5981;SDS011;3018;48.730;9.336;2023-07-02T05:38:14;6.40;;;3.63;;
5981;SDS011;3018;48.730;9.336;2023-07-02T05:40:41;4.78;;;3.30;;
5981;SDS011;3018;48.730;9.336;2023-07-02T05:43:07;4.78;;;3.92;;
5981;SDS011;3018;48.730;9.336;2023-07-02T05:45:34;5.13;;;3.72;;
5981;SDS011;3018;48.730;9.336;2023-07-02T05:48:00;5.85;;;3.40;;
5981;SDS011;3018;48.730;9.336;2023-07-02T05:50:26;5.60;;;3.38;;
5981;SDS011;3018;48.730;9.336;2023-07-02T05:52:52;7.72;;;3.80;;
5981;SDS011;3018;48.730;9.336;2023-07-02T05:55:20;4.70;;;3.90;;
5981;SDS011;3018;48.730;9.336;2023-07-02T05:57:46;5.10;;;4.00;;
5981;SDS011;3018;48.730;9.336;2023-07-02T06:00:13;7.93;;;5.20;;
5981;SDS011;3018;48.730;9.336;2023-07-02T06:02:39;8.93;;;4.78;;
5981;SDS011;3018;48.730;9.336;2023-07-02T06:05:06;11.55;;;5.93;;
5981;SDS011;3018;48.730;9.336;2023-07-02T06:07:32;7.32;;;5.43;;
5981;SDS011;3018;48.730;9.336;2023-07-02T06:09:58;9.93;;;6.15;;
5981;SDS011;3018;48.730;9.336;2023-07-02T06:12:26;12.23;;;5.93;;
5981;SDS011;3018;48.730;9.336;2023-07-02T06:14:52;12.60;;;5.82;;
5981;SDS011;3018;48.730;9.336;2023-07-02T06:17:18;11.07;;;6.20;;
5981;SDS011;3018;48.730;9.336;2023-07-02T06:19:45;11.60;;;6.00;;
5981;SDS011;3018;48.730;9.336;2023-07-02T06:22:12;8.18;;;5.53;;
5981;SDS011;3018;48.730;9.336;2023-07-02T06:24:38;8.60;;;5.60;;
5981;SDS011;3018;48.730;9.336;2023-07-02T06:27:04;11.30;;;5.80;;
5981;SDS011;3018;48.730;9.336;2023-07-02T06:29:32;8.90;;;5.70;;
5981;SDS011;3018;48.730;9.336;2023-07-02T06:31:59;12.40;;;6.03;;
5981;SDS011;3018;48.730;9.336;2023-07-02T06:34:25;13.73;;;6.60;;
5981;SDS011;3018;48.730;9.336;2023-07-02T06:36:51;15.05;;;6.70;;
5981;SDS011;3018;48.730;9.336;2023-07-02T06:39:17;9.95;;;6.93;;
5981;SDS011;3018;48.730;9.336;2023-07-02T06:41:44;9.82;;;6.45;;
5981;SDS011;3018;48.730;9.336;2023-07-02T06:44:10;7.13;;;6.18;;
5981;SDS011;3018;48.730;9.336;2023-07-02T06:46:38;9.73;;;6.60;;
5981;SDS011;3018;48.730;9.336;2023-07-02T06:49:04;15.88;;;7.70;;
5981;SDS011;3018;48.730;9.336;2023-07-02T06:51:30;16.65;;;8.38;;
5981;SDS011;3018;48.730;9.336;2023-07-02T06:53:58;14.55;;;8.07;;
5981;SDS011;3018;48.730;9.336;2023-07-02T06:56:24;14.20;;;8.43;;
5981;SDS011;3018;48.730;9.336;2023-07-02T06:58:51;15.38;;;8.27;;
5981;SDS011;3018;48.730;9.336;2023-07-02T07:01:17;15.73;;;8.65;;
5981;SDS011;3018;48.730;9.336;2023-07-02T07:03:45;15.45;;;9.25;;
5981;SDS011;3018;48.730;9.336;2023-07-02T07:06:11;15.85;;;9.02;;
5981;SDS011;3018;48.730;9.336;2023-07-02T07:08:37;16.63;;;9.05;;
5981;SDS011;3018;48.730;9.336;2023-07-02T07:11:04;18.48;;;10.25;;
5981;SDS011;3018;48.730;9.336;2023-07-02T07:13:30;18.33;;;9.27;;
5981;SDS011;3018;48.730;9.336;2023-07-02T07:15:57;18.00;;;9.55;;
5981;SDS011;3018;48.730;9.336;2023-07-02T07:18:23;19.40;;;10.05;;
5981;SDS011;3018;48.730;9.336;2023-07-02T07:20:51;17.73;;;9.65;;
5981;SDS011;3018;48.730;9.336;2023-07-02T07:23:18;15.93;;;8.95;;
5981;SDS011;3018;48.730;9.336;2023-07-02T07:25:44;17.23;;;9.38;;
5981;SDS011;3018;48.730;9.336;2023-07-02T07:28:10;17.85;;;9.32;;
5981;SDS011;3018;48.730;9.336;2023-07-02T07:30:40;17.20;;;9.80;;
5981;SDS011;3018;48.730;9.336;2023-07-02T07:33:06;18.27;;;10.30;;
5981;SDS011;3018;48.730;9.336;2023-07-02T07:35:33;17.23;;;9.52;;
5981;SDS011;3018;48.730;9.336;2023-07-02T07:38:00;17.33;;;10.88;;
5981;SDS011;3018;48.730;9.336;2023-07-02T07:40:26;19.58;;;11.23;;
5981;SDS011;3018;48.730;9.336;2023-07-02T07:42:53;19.35;;;10.55;;
5981;SDS011;3018;48.730;9.336;2023-07-02T07:45:19;18.42;;;10.05;;
5981;SDS011;3018;48.730;9.336;2023-07-02T07:47:45;18.42;;;10.50;;
5981;SDS011;3018;48.730;9.336;2023-07-02T07:50:12;18.15;;;10.57;;
5981;SDS011;3018;48.730;9.336;2023-07-02T07:52:38;19.23;;;11.38;;
5981;SDS011;3018;48.730;9.336;2023-07-02T07:55:06;24.08;;;11.73;;
5981;SDS011;3018;48.730;9.336;2023-07-02T07:57:33;19.02;;;10.90;;
5981;SDS011;3018;48.730;9.336;2023-07-02T07:59:59;20.85;;;11.45;;
5981;SDS011;3018;48.730;9.336;2023-07-02T08:02:26;24.67;;;12.30;;
5981;SDS011;3018;48.730;9.336;2023-07-02T08:04:52;23.33;;;11.57;;
5981;SDS011;3018;48.730;9.336;2023-07-02T08:07:18;24.23;;;12.75;;
5981;SDS011;3018;48.730;9.336;2023-07-02T08:09:45;23.13;;;12.65;;
5981;SDS011;3018;48.730;9.336;2023-07-02T08:12:12;22.75;;;13.07;;
5981;SDS011;3018;48.730;9.336;2023-07-02T08:14:39;21.98;;;12.57;;
5981;SDS011;3018;48.730;9.336;2023-07-02T08:17:05;21.38;;;12.93;;
5981;SDS011;3018;48.730;9.336;2023-07-02T08:19:31;23.75;;;12.00;;
5981;SDS011;3018;48.730;9.336;2023-07-02T08:21:57;23.35;;;12.60;;
5981;SDS011;3018;48.730;9.336;2023-07-02T08:24:24;21.73;;;12.85;;
5981;SDS011;3018;48.730;9.336;2023-07-02T08:26:50;24.25;;;11.90;;
5981;SDS011;3018;48.730;9.336;2023-07-02T08:29:18;25.20;;;12.80;;
5981;SDS011;3018;48.730;9.336;2023-07-02T08:31:44;18.88;;;11.77;;
5981;SDS011;3018;48.730;9.336;2023-07-02T08:34:10;25.65;;;12.80;;
5981;SDS011;3018;48.730;9.336;2023-07-02T08:36:36;20.92;;;12.80;;
5981;SDS011;3018;48.730;9.336;2023-07-02T08:39:03;22.88;;;12.45;;
5981;SDS011;3018;48.730;9.336;2023-07-02T08:41:29;22.10;;;12.13;;
5981;SDS011;3018;48.730;9.336;2023-07-02T08:43:56;24.70;;;14.07;;
5981;SDS011;3018;48.730;9.336;2023-07-02T08:46:24;24.77;;;12.35;;
5981;SDS011;3018;48.730;9.336;2023-07-02T08:48:50;23.42;;;13.38;;
5981;SDS011;3018;48.730;9.336;2023-07-02T08:51:16;21.42;;;12.07;;
5981;SDS011;3018;48.730;9.336;2023-07-02T08:53:43;19.02;;;12.45;;
5981;SDS011;3018;48.730;9.336;2023-07-02T08:56:09;19.30;;;12.18;;
5981;SDS011;3018;48.730;9.336;2023-07-02T08:58:35;17.85;;;11.88;;
5981;SDS011;3018;48.730;9.336;2023-07-02T09:01:05;23.33;;;12.55;;
5981;SDS011;3018;48.730;9.336;2023-07-02T09:03:33;20.55;;;12.63;;
5981;SDS011;3018;48.730;9.336;2023-07-02T09:05:59;21.20;;;12.15;;
5981;SDS011;3018;48.730;9.336;2023-07-02T09:08:26;19.73;;;11.80;;
5981;SDS011;3018;48.730;9.336;2023-07-02T09:10:52;22.20;;;12.70;;
5981;SDS011;3018;48.730;9.336;2023-07-02T09:13:19;25.48;;;12.80;;
5981;SDS011;3018;48.730;9.336;2023-07-02T09:15:45;21.27;;;12.70;;
5981;SDS011;3018;48.730;9.336;2023-07-02T09:18:18;18.65;;;12.52;;
5981;SDS011;3018;48.730;9.336;2023-07-02T09:20:46;19.45;;;12.85;;
5981;SDS011;3018;48.730;9.336;2023-07-02T09:23:12;20.98;;;13.38;;
5981;SDS011;3018;48.730;9.336;2023-07-02T09:25:39;21.35;;;12.10;;
5981;SDS011;3018;48.730;9.336;2023-07-02T09:28:16;19.88;;;11.93;;
5981;SDS011;3018;48.730;9.336;2023-07-02T09:30:49;16.08;;;11.45;;
5981;SDS011;3018;48.730;9.336;2023-07-02T09:33:16;19.98;;;11.68;;
5981;SDS011;3018;48.730;9.336;2023-07-02T09:35:42;22.17;;;12.23;;
5981;SDS011;3018;48.730;9.336;2023-07-02T09:38:10;19.42;;;12.25;;
5981;SDS011;3018;48.730;9.336;2023-07-02T09:40:37;18.25;;;11.52;;
5981;SDS011;3018;48.730;9.336;2023-07-02T09:43:09;20.92;;;11.25;;
5981;SDS011;3018;48.730;9.336;2023-07-02T09:45:36;17.83;;;11.80;;
5981;SDS011;3018;48.730;9.336;2023-07-02T09:48:02;20.67;;;11.45;;
5981;SDS011;3018;48.730;9.336;2023-07-02T09:50:29;19.33;;;10.88;;
5981;SDS011;3018;48.730;9.336;2023-07-02T09:52:55;18.05;;;11.13;;
5981;SDS011;3018;48.730;9.336;2023-07-02T09:55:23;16.55;;;10.90;;
5981;SDS011;3018;48.730;9.336;2023-07-02T09:57:49;20.27;;;11.68;;
5981;SDS011;3018;48.730;9.336;2023-07-02T10:00:16;19.00;;;10.85;;
5981;SDS011;3018;48.730;9.336;2023-07-02T10:02:47;21.73;;;12.18;;
5981;SDS011;3018;48.730;9.336;2023-07-02T10:05:23;16.95;;;11.77;;
5981;SDS011;3018;48.730;9.336;2023-07-02T10:07:50;21.88;;;11.80;;
5981;SDS011;3018;48.730;9.336;2023-07-02T10:10:26;25.15;;;12.85;;
5981;SDS011;3018;48.730;9.336;2023-07-02T10:12:52;19.73;;;13.20;;
5981;SDS011;3018;48.730;9.336;2023-07-02T10:15:23;24.13;;;13.05;;
5981;SDS011;3018;48.730;9.336;2023-07-02T10:17:54;19.77;;;12.13;;
5981;SDS011;3018;48.730;9.336;2023-07-02T10:20:30;19.17;;;11.85;;
5981;SDS011;3018;48.730;9.336;2023-07-02T10:22:57;22.27;;;12.48;;
5981;SDS011;3018;48.730;9.336;2023-07-02T10:25:23;22.13;;;12.85;;
5981;SDS011;3018;48.730;9.336;2023-07-02T10:27:51;18.25;;;12.05;;
5981;SDS011;3018;48.730;9.336;2023-07-02T10:30:18;19.27;;;12.20;;
5981;SDS011;3018;48.730;9.336;2023-07-02T10:32:45;23.83;;;13.23;;
5981;SDS011;3018;48.730;9.336;2023-07-02T10:35:14;23.20;;;13.18;;
5981;SDS011;3018;48.730;9.336;2023-07-02T10:37:41;22.73;;;13.68;;
5981;SDS011;3018;48.730;9.336;2023-07-02T10:40:08;22.30;;;14.60;;
5981;SDS011;3018;48.730;9.336;2023-07-02T10:42:44;25.10;;;15.55;;
5981;SDS011;3018;48.730;9.336;2023-07-02T10:45:11;22.88;;;14.98;;
5981;SDS011;3018;48.730;9.336;2023-07-02T10:47:39;26.63;;;15.10;;
5981;SDS011;3018;48.730;9.336;2023-07-02T10:50:13;22.38;;;14.60;;
5981;SDS011;3018;48.730;9.336;2023-07-02T10:52:39;26.30;;;15.00;;
5981;SDS011;3018;48.730;9.336;2023-07-02T10:55:06;22.85;;;14.65;;
5981;SDS011;3018;48.730;9.336;2023-07-02T10:57:32;19.40;;;13.45;;
5981;SDS011;3018;48.730;9.336;2023-07-02T11:00:03;20.55;;;14.35;;
5981;SDS011;3018;48.730;9.336;2023-07-02T11:02:34;21.33;;;14.05;;
5981;SDS011;3018;48.730;9.336;2023-07-02T11:05:00;19.98;;;14.20;;
5981;SDS011;3018;48.730;9.336;2023-07-02T11:07:27;23.15;;;14.38;;
5981;SDS011;3018;48.730;9.336;2023-07-02T11:09:53;21.35;;;14.57;;
5981;SDS011;3018;48.730;9.336;2023-07-02T11:12:26;22.73;;;14.68;;
5981;SDS011;3018;48.730;9.336;2023-07-02T11:14:53;23.00;;;13.82;;
5981;SDS011;3018;48.730;9.336;2023-07-02T11:17:24;24.15;;;14.82;;
5981;SDS011;3018;48.730;9.336;2023-07-02T11:19:52;20.38;;;14.88;;
5981;SDS011;3018;48.730;9.336;2023-07-02T11:22:19;21.38;;;14.65;;
5981;SDS011;3018;48.730;9.336;2023-07-02T11:24:45;24.05;;;15.45;;
5981;SDS011;3018;48.730;9.336;2023-07-02T11:27:20;22.80;;;15.10;;
5981;SDS011;3018;48.730;9.336;2023-07-02T11:29:46;22.17;;;14.20;;
5981;SDS011;3018;48.730;9.336;2023-07-02T11:32:12;19.95;;;13.95;;
5981;SDS011;3018;48.730;9.336;2023-07-02T11:34:39;19.55;;;12.90;;
5981;SDS011;3018;48.730;9.336;2023-07-02T11:37:07;21.13;;;13.05;;
5981;SDS011;3018;48.730;9.336;2023-07-02T11:39:33;22.50;;;13.00;;
5981;SDS011;3018;48.730;9.336;2023-07-02T11:41:59;22.63;;;13.68;;
5981;SDS011;3018;48.730;9.336;2023-07-02T11:44:25;21.10;;;12.77;;
5981;SDS011;3018;48.730;9.336;2023-07-02T11:46:52;21.48;;;13.00;;
5981;SDS011;3018;48.730;9.336;2023-07-02T11:49:18;19.55;;;12.43;;
5981;SDS011;3018;48.730;9.336;2023-07-02T11:51:44;18.05;;;12.63;;
5981;SDS011;3018;48.730;9.336;2023-07-02T11:54:14;16.70;;;11.75;;
5981;SDS011;3018;48.730;9.336;2023-07-02T11:56:41;20.05;;;12.55;;
5981;SDS011;3018;48.730;9.336;2023-07-02T11:59:08;17.42;;;12.05;;
5981;SDS011;3018;48.730;9.336;2023-07-02T12:01:35;20.77;;;12.35;;
5981;SDS011;3018;48.730;9.336;2023-07-02T12:04:01;20.65;;;12.55;;
5981;SDS011;3018;48.730;9.336;2023-07-02T12:06:28;18.75;;;12.90;;
5981;SDS011;3018;48.730;9.336;2023-07-02T12:08:54;20.60;;;12.98;;
5981;SDS011;3018;48.730;9.336;2023-07-02T12:11:21;22.75;;;12.15;;
5981;SDS011;3018;48.730;9.336;2023-07-02T12:13:48;21.27;;;13.20;;
5981;SDS011;3018;48.730;9.336;2023-07-02T12:16:14;19.30;;;12.38;;
5981;SDS011;3018;48.730;9.336;2023-07-02T12:18:40;19.23;;;12.30;;
5981;SDS011;3018;48.730;9.336;2023-07-02T12:21:07;22.13;;;13.13;;
5981;SDS011;3018;48.730;9.336;2023-07-02T12:23:33;22.27;;;12.40;;
5981;SDS011;3018;48.730;9.336;2023-07-02T12:25:59;18.48;;;11.82;;
5981;SDS011;3018;48.730;9.336;2023-07-02T12:28:27;22.75;;;13.00;;
5981;SDS011;3018;48.730;9.336;2023-07-02T12:30:53;17.55;;;12.70;;
5981;SDS011;3018;48.730;9.336;2023-07-02T12:33:19;18.52;;;12.32;;
5981;SDS011;3018;48.730;9.336;2023-07-02T12:35:45;19.10;;;12.25;;
5981;SDS011;3018;48.730;9.336;2023-07-02T12:38:12;19.50;;;12.48;;
5981;SDS011;3018;48.730;9.336;2023-07-02T12:40:39;19.67;;;12.85;;
5981;SDS011;3018;48.730;9.336;2023-07-02T12:43:05;18.88;;;13.20;;
5981;SDS011;3018;48.730;9.336;2023-07-02T12:45:32;17.48;;;12.23;;
5981;SDS011;3018;48.730;9.336;2023-07-02T12:47:59;18.95;;;12.82;;
5981;SDS011;3018;48.730;9.336;2023-07-02T12:50:25;20.52;;;11.95;;
5981;SDS011;3018;48.730;9.336;2023-07-02T12:52:51;19.65;;;13.20;;
5981;SDS011;3018;48.730;9.336;2023-07-02T12:55:17;16.17;;;12.48;;
5981;SDS011;3018;48.730;9.336;2023-07-02T12:57:44;20.80;;;13.05;;
5981;SDS011;3018;48.730;9.336;2023-07-02T13:00:10;17.10;;;12.18;;
5981;SDS011;3018;48.730;9.336;2023-07-02T13:02:38;21.38;;;13.07;;
5981;SDS011;3018;48.730;9.336;2023-07-02T13:05:05;19.48;;;13.93;;
5981;SDS011;3018;48.730;9.336;2023-07-02T13:07:31;20.73;;;13.05;;
5981;SDS011;3018;48.730;9.336;2023-07-02T13:09:57;18.02;;;13.45;;
5981;SDS011;3018;48.730;9.336;2023-07-02T13:12:24;20.25;;;13.40;;
5981;SDS011;3018;48.730;9.336;2023-07-02T13:14:50;20.23;;;13.95;;
5981;SDS011;3018;48.730;9.336;2023-07-02T13:17:16;19.13;;;13.48;;
5981;SDS011;3018;48.730;9.336;2023-07-02T13:19:44;18.67;;;12.95;;
5981;SDS011;3018;48.730;9.336;2023-07-02T13:22:10;20.00;;;13.27;;
5981;SDS011;3018;48.730;9.336;2023-07-02T13:24:36;18.88;;;13.15;;
5981;SDS011;3018;48.730;9.336;2023-07-02T13:27:06;17.98;;;12.73;;
5981;SDS011;3018;48.730;9.336;2023-07-02T13:29:34;20.15;;;13.02;;
5981;SDS011;3018;48.730;9.336;2023-07-02T13:32:01;23.23;;;12.95;;
5981;SDS011;3018;48.730;9.336;2023-07-02T13:34:27;20.60;;;13.52;;
5981;SDS011;3018;48.730;9.336;2023-07-02T13:36:54;19.77;;;12.50;;
5981;SDS011;3018;48.730;9.336;2023-07-02T13:39:21;20.50;;;12.63;;
5981;SDS011;3018;48.730;9.336;2023-07-02T13:41:47;23.42;;;12.77;;
5981;SDS011;3018;48.730;9.336;2023-07-02T13:44:14;17.73;;;12.70;;
5981;SDS011;3018;48.730;9.336;2023-07-02T13:46:40;18.67;;;12.65;;
5981;SDS011;3018;48.730;9.336;2023-07-02T13:49:06;16.52;;;12.18;;
5981;SDS011;3018;48.730;9.336;2023-07-02T13:51:32;21.33;;;13.55;;
5981;SDS011;3018;48.730;9.336;2023-07-02T13:54:00;16.88;;;12.18;;
5981;SDS011;3018;48.730;9.336;2023-07-02T13:56:26;21.38;;;12.88;;
5981;SDS011;3018;48.730;9.336;2023-07-02T13:59:01;18.98;;;12.57;;
5981;SDS011;3018;48.730;9.336;2023-07-02T14:01:28;18.17;;;12.00;;
5981;SDS011;3018;48.730;9.336;2023-07-02T14:03:54;18.30;;;13.13;;
5981;SDS011;3018;48.730;9.336;2023-07-02T14:06:20;21.17;;;12.40;;
5981;SDS011;3018;48.730;9.336;2023-07-02T14:08:47;16.00;;;11.20;;
5981;SDS011;3018;48.730;9.336;2023-07-02T14:11:13;17.15;;;11.35;;
5981;SDS011;3018;48.730;9.336;2023-07-02T14:13:39;16.83;;;11.30;;
5981;SDS011;3018;48.730;9.336;2023-07-02T14:16:07;16.58;;;11.95;;
5981;SDS011;3018;48.730;9.336;2023-07-02T14:18:33;15.98;;;11.75;;
5981;SDS011;3018;48.730;9.336;2023-07-02T14:20:59;19.83;;;12.57;;
5981;SDS011;3018;48.730;9.336;2023-07-02T14:23:26;16.77;;;12.18;;
5981;SDS011;3018;48.730;9.336;2023-07-02T14:25:53;21.05;;;12.07;;
5981;SDS011;3018;48.730;9.336;2023-07-02T14:28:19;19.13;;;11.75;;
5981;SDS011;3018;48.730;9.336;2023-07-02T14:30:45;19.25;;;12.27;;
5981;SDS011;3018;48.730;9.336;2023-07-02T14:33:14;19.13;;;12.48;;
5981;SDS011;3018;48.730;9.336;2023-07-02T14:35:40;18.50;;;11.95;;
5981;SDS011;3018;48.730;9.336;2023-07-02T14:38:07;16.77;;;11.23;;
5981;SDS011;3018;48.730;9.336;2023-07-02T14:40:33;18.42;;;12.23;;
5981;SDS011;3018;48.730;9.336;2023-07-02T14:42:59;17.48;;;11.98;;
5981;SDS011;3018;48.730;9.336;2023-07-02T14:45:29;18.65;;;12.10;;
5981;SDS011;3018;48.730;9.336;2023-07-02T14:47:55;17.67;;;12.50;;
5981;SDS011;3018;48.730;9.336;2023-07-02T14:50:26;17.73;;;12.38;;
5981;SDS011;3018;48.730;9.336;2023-07-02T14:52:52;16.92;;;12.23;;
5981;SDS011;3018;48.730;9.336;2023-07-02T14:55:18;17.23;;;12.43;;
5981;SDS011;3018;48.730;9.336;2023-07-02T14:57:45;18.90;;;12.57;;